Time;durP1;ratioP1;P1;durP2;ratioP2;P2;SDS_P1;SDS_P2;PMS_P1;PMS_P2;Temp;Humidity;BMP_temperature;BMP_pressure;BME280_temperature;BME280_humidity;BME280_pressure;Samples;Min_cycle;Max_cycle;Signal;HPM_P1;HPM_P2
2022/05/09 00:00:13;;;;;;;1.95;1.80;;;15.40;49.00;;;;;;5015719;28;20048;-79
2022/05/09 00:02:40;;;;;;;3.33;2.08;;;15.40;49.10;;;;;;5025388;28;20484;-78
2022/05/09 00:05:08;;;;;;;3.60;2.00;;;15.30;49.00;;;;;;5027083;28;20400;-79
2022/05/09 00:07:34;;;;;;;5.65;2.65;;;15.30;49.10;;;;;;5029655;28;20068;-77
2022/05/09 00:10:00;;;;;;;2.40;1.90;;;15.30;49.20;;;;;;5034286;28;20029;-77
2022/05/09 00:12:27;;;;;;;3.30;1.80;;;15.20;49.10;;;;;;5016447;28;20124;-76
2022/05/09 00:14:53;;;;;;;4.28;2.35;;;15.10;49.10;;;;;;5028876;28;20025;-76
2022/05/09 00:17:19;;;;;;;3.00;2.15;;;15.10;49.10;;;;;;5028766;28;20041;-79
2022/05/09 00:22:51;;;;;;;4.30;2.03;;;15.10;49.40;;;;;;4302180;26;20750;-75
2022/05/09 00:25:23;;;;;;;5.97;2.13;;;15.00;49.20;;;;;;5040817;28;20176;-76
2022/05/09 00:27:50;;;;;;;2.28;1.48;;;14.90;49.10;;;;;;5047054;28;20025;-75
2022/05/09 00:30:16;;;;;;;4.97;1.92;;;15.00;49.40;;;;;;5041786;28;20471;-78
2022/05/09 00:32:43;;;;;;;3.53;1.80;;;14.90;49.30;;;;;;5044947;28;20037;-75
2022/05/09 00:35:10;;;;;;;3.15;2.10;;;14.90;49.40;;;;;;5024382;28;20025;-77
2022/05/09 00:37:37;;;;;;;2.65;1.73;;;14.80;49.40;;;;;;5033461;28;20037;-76
2022/05/09 00:40:08;;;;;;;4.15;1.88;;;14.80;49.40;;;;;;5032707;28;20032;-76
2022/05/09 00:42:35;;;;;;;3.17;2.15;;;14.80;49.60;;;;;;5050602;28;20037;-79
2022/05/09 00:45:03;;;;;;;4.07;2.38;;;14.70;49.40;;;;;;5050431;28;20407;-77
2022/05/09 00:47:29;;;;;;;6.50;3.50;;;14.70;49.60;;;;;;5048388;28;20154;-78
2022/05/09 00:50:00;;;;;;;4.97;2.00;;;14.70;49.70;;;;;;5026652;28;20025;-79
2022/05/09 00:52:36;;;;;;;3.92;2.40;;;14.70;49.80;;;;;;5047671;28;20178;-78
2022/05/09 00:55:14;;;;;;;3.75;2.13;;;14.60;49.70;;;;;;5025011;28;20074;-77
2022/05/09 00:57:54;;;;;;;5.70;2.42;;;14.60;49.80;;;;;;5032862;28;20052;-78
2022/05/09 01:00:22;;;;;;;4.13;2.25;;;14.60;49.90;;;;;;5057400;28;20391;-76
2022/05/09 01:02:55;;;;;;;6.85;3.17;;;14.60;49.90;;;;;;5046116;28;20492;-77
2022/05/09 01:05:21;;;;;;;;;;;14.50;49.80;;;;;;5035359;28;20111;-78
2022/05/09 01:07:46;;;;;;;4.25;2.20;;;14.40;49.60;;;;;;5048271;28;20386;-76
2022/05/09 01:10:15;;;;;;;4.72;1.92;;;14.40;49.40;;;;;;5028271;28;20024;-77
2022/05/09 01:12:44;;;;;;;5.00;2.42;;;14.40;49.50;;;;;;5047482;28;20033;-78
2022/05/09 01:15:16;;;;;;;5.55;2.60;;;14.40;49.70;;;;;;5051623;28;20103;-78
2022/05/09 01:17:43;;;;;;;3.78;2.30;;;14.40;49.90;;;;;;5046455;28;20041;-79
2022/05/09 01:20:11;;;;;;;7.03;2.78;;;14.30;49.70;;;;;;5048381;28;20024;-79
2022/05/09 01:22:39;;;;;;;11.88;3.95;;;14.30;49.90;;;;;;5011826;28;20057;-79
2022/05/09 01:25:09;;;;;;;3.65;2.22;;;14.30;49.90;;;;;;5024248;28;20029;-80
2022/05/09 01:27:41;;;;;;;7.00;2.72;;;14.30;50.00;;;;;;5024414;28;20060;-79
2022/05/09 01:30:21;;;;;;;7.95;2.53;;;14.20;49.90;;;;;;5028319;28;20057;-78
2022/05/09 01:32:56;;;;;;;6.05;2.50;;;14.20;50.00;;;;;;5026235;28;20439;-78
2022/05/09 01:35:30;;;;;;;3.80;2.10;;;14.20;50.10;;;;;;5030489;28;20122;-77
2022/05/09 01:38:14;;;;;;;4.28;1.88;;;14.10;49.90;;;;;;5028384;28;20045;-76
2022/05/09 01:40:40;;;;;;;5.78;3.05;;;14.10;50.00;;;;;;5029467;28;20029;-76
2022/05/09 01:43:06;;;;;;;4.07;2.00;;;14.10;50.00;;;;;;5033125;28;20045;-75
2022/05/09 01:45:39;;;;;;;6.22;2.08;;;14.00;49.90;;;;;;5030503;28;20045;-77
2022/05/09 01:50:50;;;;;;;6.38;2.70;;;14.00;50.10;;;;;;4964652;28;20390;-74
2022/05/09 01:53:16;;;;;;;7.30;2.72;;;14.00;50.10;;;;;;4958811;28;20023;-74
2022/05/09 01:55:42;;;;;;;5.70;2.13;;;13.90;49.90;;;;;;4961980;28;20027;-74
2022/05/09 01:58:08;;;;;;;3.88;2.03;;;13.90;50.60;;;;;;4985624;28;20069;-74
2022/05/09 02:00:36;;;;;;;5.10;2.40;;;13.90;50.10;;;;;;4966502;28;20062;-74
2022/05/09 02:03:03;;;;;;;3.85;1.95;;;13.90;50.10;;;;;;4966563;28;20053;-74
2022/05/09 02:05:29;;;;;;;4.32;2.00;;;13.90;50.10;;;;;;4968877;28;20035;-74
2022/05/09 02:07:55;;;;;;;5.20;2.05;;;13.90;50.20;;;;;;4988970;28;20109;-74
2022/05/09 02:10:20;;;;;;;6.10;2.08;;;13.90;50.20;;;;;;4962330;28;20486;-74
2022/05/09 02:12:49;;;;;;;8.50;2.38;;;13.90;50.30;;;;;;4962204;28;20594;-74
2022/05/09 02:15:15;;;;;;;3.13;1.90;;;13.80;50.10;;;;;;4974412;28;20015;-74
2022/05/09 02:17:41;;;;;;;5.10;1.77;;;13.80;50.10;;;;;;4963408;28;20034;-74
2022/05/09 02:20:07;;;;;;;5.20;2.30;;;13.80;50.20;;;;;;4960049;28;20058;-74
2022/05/09 02:22:33;;;;;;;5.68;2.47;;;13.80;50.80;;;;;;4954718;28;20058;-74
2022/05/09 02:24:59;;;;;;;6.53;2.05;;;13.80;50.30;;;;;;4990049;28;20081;-74
2022/05/09 02:27:25;;;;;;;6.13;2.63;;;13.70;50.10;;;;;;4975351;28;20118;-75
2022/05/09 02:29:50;;;;;;;4.25;2.00;;;13.70;50.20;;;;;;4992944;28;20506;-75
2022/05/09 02:32:16;;;;;;;5.85;2.33;;;13.70;50.20;;;;;;4975042;28;20022;-75
2022/05/09 02:34:42;;;;;;;6.18;3.08;;;13.70;50.30;;;;;;4973753;28;20133;-75
2022/05/09 02:37:08;;;;;;;6.85;2.13;;;13.70;50.30;;;;;;4970320;28;20105;-75
2022/05/09 02:39:34;;;;;;;8.52;2.67;;;13.70;50.40;;;;;;4967987;28;20442;-75
2022/05/09 02:42:00;;;;;;;3.35;1.70;;;13.60;50.20;;;;;;4975735;28;20121;-75
2022/05/09 02:44:28;;;;;;;3.63;2.30;;;13.60;50.30;;;;;;4994180;28;20442;-73
2022/05/09 02:46:54;;;;;;;5.95;2.30;;;13.60;50.40;;;;;;4986886;28;20543;-75
2022/05/09 02:49:20;;;;;;;4.95;1.92;;;13.50;50.20;;;;;;4988872;28;20460;-75
2022/05/09 02:51:49;;;;;;;4.72;2.35;;;13.60;50.50;;;;;;4987730;28;20034;-75
2022/05/09 02:54:16;;;;;;;2.60;1.92;;;13.50;50.30;;;;;;4993017;28;20053;-75
2022/05/09 02:56:42;;;;;;;5.15;2.20;;;13.50;50.40;;;;;;4994967;28;20127;-75
2022/05/09 02:59:08;;;;;;;8.07;2.58;;;13.50;50.40;;;;;;4986009;28;20359;-75
2022/05/09 03:01:34;;;;;;;9.82;2.97;;;13.50;50.60;;;;;;4991630;28;20100;-74
2022/05/09 03:06:45;;;;;;;5.85;2.78;;;13.40;50.50;;;;;;4988976;28;20444;-74
2022/05/09 03:09:11;;;;;;;4.20;2.60;;;13.40;50.50;;;;;;4993095;28;20030;-74
2022/05/09 03:11:37;;;;;;;6.93;2.83;;;13.40;50.60;;;;;;4985491;28;20097;-74
2022/05/09 03:14:03;;;;;;;5.50;2.60;;;13.30;50.50;;;;;;4977944;28;20046;-74
2022/05/09 03:16:29;;;;;;;6.88;2.42;;;13.30;50.50;;;;;;4990074;28;20368;-75
2022/05/09 03:18:55;;;;;;;6.47;2.75;;;13.20;50.40;;;;;;4994674;28;20043;-75
2022/05/09 03:21:22;;;;;;;8.30;2.38;;;13.30;50.70;;;;;;4983643;28;20081;-75
2022/05/09 03:23:47;;;;;;;5.78;2.20;;;13.20;50.60;;;;;;4991567;28;20049;-75
2022/05/09 03:26:13;;;;;;;3.60;2.22;;;13.20;50.60;;;;;;4996186;28;20262;-75
2022/05/09 03:28:40;;;;;;;5.75;2.58;;;13.10;50.50;;;;;;4994026;28;20097;-76
2022/05/09 03:31:06;;;;;;;6.15;2.15;;;13.10;50.60;;;;;;4974140;28;20026;-74
2022/05/09 03:33:31;;;;;;;6.05;2.88;;;13.10;50.70;;;;;;4988926;28;20081;-74
2022/05/09 03:35:59;;;;;;;6.53;2.80;;;13.10;50.70;;;;;;4992753;28;20068;-75
2022/05/09 03:38:25;;;;;;;5.18;2.25;;;13.00;50.60;;;;;;4975030;28;20082;-74
2022/05/09 03:40:51;;;;;;;8.23;2.60;;;13.00;50.70;;;;;;4995294;28;20477;-74
2022/05/09 03:43:17;;;;;;;4.47;2.10;;;13.00;50.70;;;;;;4978135;28;20022;-75
2022/05/09 03:45:45;;;;;;;7.35;3.55;;;13.00;50.80;;;;;;4992483;28;20022;-74
2022/05/09 03:48:11;;;;;;;4.30;2.67;;;12.90;50.70;;;;;;4977441;28;20048;-75
2022/05/09 03:50:37;;;;;;;4.43;2.60;;;12.90;50.70;;;;;;4992079;28;20105;-75
2022/05/09 03:53:03;;;;;;;4.60;1.95;;;12.90;50.80;;;;;;4983428;28;20023;-74
2022/05/09 03:55:29;;;;;;;6.00;2.53;;;12.90;50.90;;;;;;4969014;28;20038;-75
2022/05/09 03:57:56;;;;;;;5.45;2.17;;;12.80;50.70;;;;;;4991015;28;20041;-75
2022/05/09 04:00:25;;;;;;;5.13;2.25;;;12.80;50.80;;;;;;4990764;28;20053;-74
2022/05/09 04:02:51;;;;;;;5.03;2.40;;;12.80;50.90;;;;;;4991996;28;20040;-74
2022/05/09 04:05:18;;;;;;;5.88;2.05;;;12.80;51.00;;;;;;4990007;28;20101;-74
2022/05/09 04:07:50;;;;;;;5.82;2.92;;;12.80;51.00;;;;;;4973675;28;20022;-74
2022/05/09 04:10:21;;;;;;;6.38;2.55;;;12.80;51.10;;;;;;4995831;28;20396;-73
2022/05/09 04:12:48;;;;;;;4.65;2.60;;;12.80;51.10;;;;;;4980760;28;20045;-74
2022/05/09 04:18:00;;;;;;;4.60;2.22;;;12.70;51.00;;;;;;4992116;28;20385;-74
2022/05/09 04:20:29;;;;;;;7.38;2.70;;;12.70;51.10;;;;;;4988178;28;20033;-74
2022/05/09 04:22:56;;;;;;;6.38;2.40;;;12.70;51.70;;;;;;4997870;28;20400;-74
2022/05/09 04:25:22;;;;;;;6.68;2.88;;;12.70;51.20;;;;;;4993569;28;20054;-73
2022/05/09 04:27:50;;;;;;;8.23;3.25;;;12.70;51.20;;;;;;4997825;28;20037;-73
2022/05/09 04:30:17;;;;;;;7.53;2.90;;;12.60;51.10;;;;;;4997573;28;20026;-73
2022/05/09 04:32:44;;;;;;;3.47;2.50;;;12.60;51.10;;;;;;4995687;28;20053;-74
2022/05/09 04:35:17;;;;;;;7.57;2.90;;;12.60;51.20;;;;;;4994332;28;20037;-74
2022/05/09 04:37:48;;;;;;;8.57;2.50;;;12.60;51.30;;;;;;4994870;28;20041;-74
2022/05/09 04:40:20;;;;;;;8.48;2.63;;;12.60;51.30;;;;;;4988654;28;20356;-74
2022/05/09 04:42:46;;;;;;;9.83;4.57;;;12.60;51.40;;;;;;4999127;28;20058;-74
2022/05/09 04:45:14;;;;;;;4.22;2.35;;;12.70;51.60;;;;;;5001194;28;20119;-74
2022/05/09 04:47:40;;;;;;;6.00;2.58;;;12.70;51.80;;;;;;4994008;28;20046;-74
2022/05/09 04:50:09;;;;;;;5.82;2.17;;;12.70;51.70;;;;;;4989548;28;20483;-74
2022/05/09 04:52:35;;;;;;;7.03;2.80;;;12.70;51.70;;;;;;4971557;28;20021;-74
2022/05/09 04:55:02;;;;;;;6.15;2.65;;;12.70;51.70;;;;;;4992469;28;20143;-74
2022/05/09 04:57:28;;;;;;;6.25;3.10;;;12.80;51.90;;;;;;4995995;28;20077;-75
2022/05/09 04:59:53;;;;;;;3.17;2.40;;;12.80;51.90;;;;;;4988730;28;20107;-74
2022/05/09 05:02:19;;;;;;;5.13;2.42;;;12.80;51.80;;;;;;4996296;28;20049;-73
2022/05/09 05:04:45;;;;;;;7.10;2.60;;;12.90;52.00;;;;;;4989777;28;20034;-75
2022/05/09 05:07:11;;;;;;;4.22;2.47;;;12.90;52.00;;;;;;4993590;28;20362;-74
2022/05/09 05:09:37;;;;;;;4.05;2.50;;;12.90;51.90;;;;;;4992566;28;20026;-74
2022/05/09 05:12:03;;;;;;;6.00;2.58;;;13.00;52.10;;;;;;4983761;28;20027;-75
2022/05/09 05:14:29;;;;;;;6.78;3.30;;;13.00;52.10;;;;;;4994007;28;20038;-75
2022/05/09 05:17:01;;;;;;;3.30;2.40;;;13.10;52.20;;;;;;4989808;28;20107;-74
2022/05/09 05:19:34;;;;;;;6.65;2.72;;;13.10;52.20;;;;;;4989805;28;20501;-73
2022/05/09 05:22:01;;;;;;;6.50;2.38;;;13.10;52.10;;;;;;4988944;28;20023;-74
2022/05/09 05:24:28;;;;;;;4.72;2.80;;;13.10;52.10;;;;;;4988440;28;20072;-73
2022/05/09 05:26:56;;;;;;;5.78;2.50;;;13.20;52.20;;;;;;4989512;28;20029;-72
2022/05/09 05:29:23;;;;;;;5.13;2.70;;;13.20;52.10;;;;;;4990171;28;20165;-72
2022/05/09 05:31:49;;;;;;;5.78;3.33;;;13.30;52.20;;;;;;4992664;28;20198;-72
2022/05/09 05:34:16;;;;;;;6.40;2.58;;;13.30;52.10;;;;;;4966086;28;20049;-73
2022/05/09 05:36:42;;;;;;;5.57;2.60;;;13.40;52.20;;;;;;4984464;28;20030;-72
2022/05/09 05:39:09;;;;;;;6.25;3.33;;;13.50;52.30;;;;;;4991026;28;20137;-72
2022/05/09 05:41:36;;;;;;;7.80;2.72;;;13.50;52.20;;;;;;4985033;28;20038;-72
2022/05/09 05:44:03;;;;;;;6.55;2.75;;;13.60;52.30;;;;;;4981177;28;20034;-74
2022/05/09 05:46:29;;;;;;;7.45;2.95;;;13.70;52.40;;;;;;4986583;28;20054;-75
2022/05/09 05:48:54;;;;;;;10.02;3.28;;;13.70;52.40;;;;;;4992242;28;20392;-74
2022/05/09 05:51:21;;;;;;;7.20;2.60;;;13.90;53.20;;;;;;4987128;28;20502;-75
2022/05/09 05:53:47;;;;;;;4.85;2.58;;;13.90;53.40;;;;;;4992053;28;20035;-75
2022/05/09 05:56:13;;;;;;;5.82;2.42;;;14.10;53.80;;;;;;4992490;28;20041;-76
2022/05/09 05:58:39;;;;;;;4.63;2.10;;;14.20;53.90;;;;;;4988157;28;20551;-79
2022/05/09 06:01:05;;;;;;;6.97;2.78;;;14.30;53.80;;;;;;4989160;28;20022;-76
2022/05/09 06:03:31;;;;;;;8.60;2.58;;;14.50;53.90;;;;;;4988770;28;20448;-76
2022/05/09 06:05:57;;;;;;;7.32;3.13;;;14.50;53.60;;;;;;4968522;28;20504;-76
2022/05/09 06:08:23;;;;;;;6.60;2.35;;;14.60;53.40;;;;;;4986791;28;20041;-76
2022/05/09 06:10:49;;;;;;;6.57;2.50;;;14.80;53.30;;;;;;4979270;28;20025;-76
2022/05/09 06:13:16;;;;;;;7.75;3.17;;;14.90;53.10;;;;;;4989518;28;20479;-76
2022/05/09 06:15:42;;;;;;;9.80;3.40;;;15.00;52.80;;;;;;4990019;28;20112;-76
2022/05/09 06:18:12;;;;;;;6.60;2.22;;;15.10;53.30;;;;;;4993447;28;20040;-76
2022/05/09 06:20:40;;;;;;;5.82;2.33;;;15.20;52.50;;;;;;4979996;28;20026;-75
2022/05/09 06:23:08;;;;;;;5.82;2.55;;;15.40;52.60;;;;;;4987243;28;20615;-79
2022/05/09 06:25:35;;;;;;;10.20;2.88;;;15.50;52.30;;;;;;4975098;28;20149;-74
2022/05/09 06:28:03;;;;;;;6.50;2.90;;;15.70;52.10;;;;;;4987681;28;20435;-75
2022/05/09 06:30:29;;;;;;;6.63;2.20;;;15.80;51.70;;;;;;4989828;28;20104;-75
2022/05/09 06:32:56;;;;;;;8.13;2.20;;;15.90;51.50;;;;;;4996238;28;20455;-74
2022/05/09 06:35:24;;;;;;;3.78;2.00;;;16.00;51.40;;;;;;4982384;28;20121;-74
2022/05/09 06:37:58;;;;;;;9.88;3.70;;;16.10;51.20;;;;;;4991244;28;20046;-73
2022/05/09 06:40:25;;;;;;;5.75;2.47;;;16.20;51.10;;;;;;4984650;28;20026;-74
2022/05/09 06:42:54;;;;;;;6.70;3.05;;;16.20;50.80;;;;;;4988123;28;20069;-74
2022/05/09 06:45:21;;;;;;;7.78;3.30;;;16.30;50.70;;;;;;4977137;28;20034;-73
2022/05/09 06:47:48;;;;;;;7.40;2.17;;;16.40;50.70;;;;;;4991888;28;20052;-73
2022/05/09 06:50:15;;;;;;;6.78;2.67;;;16.50;50.60;;;;;;4982000;28;20259;-74
2022/05/09 06:52:42;;;;;;;8.32;3.08;;;16.70;50.50;;;;;;4983870;28;20289;-73
2022/05/09 06:55:09;;;;;;;9.50;4.63;;;16.90;50.30;;;;;;4981786;28;20042;-74
2022/05/09 06:57:40;;;;;;;4.43;2.33;;;17.10;50.00;;;;;;4987830;28;20045;-74
2022/05/09 07:00:08;;;;;;;5.68;2.33;;;17.20;49.70;;;;;;4986096;28;20310;-73
2022/05/09 07:02:34;;;;;;;5.10;2.53;;;17.40;49.70;;;;;;4975197;28;20034;-73
2022/05/09 07:05:07;;;;;;;4.05;2.10;;;17.60;49.60;;;;;;4988483;28;20093;-74
2022/05/09 07:07:38;;;;;;;8.45;2.00;;;17.80;49.40;;;;;;4987142;28;20084;-75
2022/05/09 07:10:05;;;;;;;4.63;2.05;;;18.10;49.30;;;;;;4970187;28;20047;-74
2022/05/09 07:12:31;;;;;;;17.02;2.95;;;18.40;49.20;;;;;;4982213;28;20099;-74
2022/05/09 07:14:57;;;;;;;6.68;2.67;;;18.50;48.80;;;;;;4985199;28;20031;-74
2022/05/09 07:17:23;;;;;;;4.93;2.15;;;18.60;48.70;;;;;;4987735;28;20469;-74
2022/05/09 07:19:49;;;;;;;5.55;2.47;;;18.60;48.60;;;;;;4989990;28;20064;-74
2022/05/09 07:22:14;;;;;;;6.68;2.97;;;18.50;48.40;;;;;;4988625;28;20038;-75
2022/05/09 07:24:40;;;;;;;13.93;2.83;;;18.40;48.30;;;;;;4992724;28;20030;-74
2022/05/09 07:27:07;;;;;;;9.55;2.30;;;18.30;48.10;;;;;;4978509;28;20085;-73
2022/05/09 07:29:34;;;;;;;8.18;2.50;;;18.30;48.30;;;;;;4992958;28;20104;-74
2022/05/09 07:32:00;;;;;;;9.15;2.53;;;18.30;48.30;;;;;;4990043;28;20080;-74
2022/05/09 07:34:26;;;;;;;6.18;2.67;;;18.30;48.30;;;;;;4984311;28;20030;-74
2022/05/09 07:36:52;;;;;;;6.13;2.80;;;18.30;49.00;;;;;;4994744;28;20034;-75
2022/05/09 07:39:18;;;;;;;7.03;2.20;;;18.40;48.40;;;;;;4982352;28;20038;-75
2022/05/09 07:41:43;;;;;;;5.18;1.95;;;18.50;48.50;;;;;;4987438;28;20437;-75
2022/05/09 07:44:09;;;;;;;7.85;2.60;;;18.50;48.50;;;;;;4971740;28;20023;-75
2022/05/09 07:46:35;;;;;;;8.20;2.20;;;18.50;48.50;;;;;;4981824;28;20108;-74
2022/05/09 07:49:01;;;;;;;8.75;2.85;;;18.60;48.90;;;;;;4991292;28;20085;-75
2022/05/09 07:51:27;;;;;;;5.95;3.38;;;18.70;49.10;;;;;;4992573;28;20030;-74
2022/05/09 07:53:53;;;;;;;6.80;3.20;;;18.90;49.40;;;;;;4984090;28;20117;-75
2022/05/09 07:56:19;;;;;;;8.10;2.92;;;19.10;49.50;;;;;;4992742;28;20600;-73
2022/05/09 07:58:45;;;;;;;8.90;3.45;;;19.30;49.60;;;;;;4987343;28;20043;-73
2022/05/09 08:01:10;;;;;;;10.10;3.85;;;19.50;49.60;;;;;;4972304;28;20655;-73
2022/05/09 08:03:39;;;;;;;6.25;3.28;;;19.80;50.40;;;;;;4986696;28;20049;-73
2022/05/09 08:06:06;;;;;;;7.05;3.67;;;20.00;49.80;;;;;;4989735;28;20064;-75
2022/05/09 08:08:36;;;;;;;13.27;3.95;;;20.20;49.70;;;;;;4988063;28;20041;-74
2022/05/09 08:11:03;;;;;;;14.18;4.78;;;20.30;49.60;;;;;;4987220;28;20062;-74
2022/05/09 08:13:33;;;;;;;9.90;5.00;;;20.40;49.70;;;;;;4988342;28;20116;-74
2022/05/09 08:16:02;;;;;;;10.80;4.80;;;20.50;49.80;;;;;;4988678;28;20577;-74
2022/05/09 08:18:29;;;;;;;8.40;5.40;;;20.50;49.80;;;;;;4986067;28;20061;-76
2022/05/09 08:20:57;;;;;;;10.80;5.55;;;20.50;50.00;;;;;;4986445;28;20027;-74
2022/05/09 08:23:23;;;;;;;9.95;6.30;;;20.50;50.10;;;;;;4983643;28;20612;-73
2022/05/09 08:25:51;;;;;;;10.70;6.25;;;20.50;50.20;;;;;;4983275;28;20029;-73
2022/05/09 08:28:18;;;;;;;10.65;6.53;;;20.40;50.10;;;;;;4975090;28;20029;-73
2022/05/09 08:30:47;;;;;;;10.68;6.60;;;20.40;50.30;;;;;;4994372;28;20109;-73
2022/05/09 08:33:17;;;;;;;12.73;6.80;;;20.40;50.30;;;;;;4984066;28;20026;-73
2022/05/09 08:35:44;;;;;;;9.45;5.80;;;20.40;50.40;;;;;;4989676;28;20479;-73
2022/05/09 08:38:10;;;;;;;18.15;6.78;;;20.50;50.60;;;;;;4972901;28;20324;-73
2022/05/09 08:40:40;;;;;;;16.50;7.15;;;20.50;50.70;;;;;;4991090;28;20029;-74
2022/05/09 08:43:45;;;;;;;12.45;6.63;;;20.60;50.90;;;;;;4973460;28;20570;-74
2022/05/09 08:46:20;;;;;;;10.25;7.22;;;20.60;50.90;;;;;;4985013;28;20053;-74
2022/05/09 08:48:49;;;;;;;13.10;7.22;;;20.80;51.10;;;;;;4985985;28;20034;-73
2022/05/09 08:51:52;;;;;;;12.63;6.60;;;20.80;51.10;;;;;;4969639;28;20392;-75
2022/05/09 08:54:21;;;;;;;11.02;7.38;;;20.90;51.80;;;;;;4986781;28;20065;-74
2022/05/09 08:56:51;;;;;;;11.88;7.25;;;21.00;51.10;;;;;;4992993;28;20412;-73
2022/05/09 08:59:35;;;;;;;17.63;8.47;;;21.20;51.40;;;;;;4987737;28;20038;-74
2022/05/09 09:02:19;;;;;;;13.20;7.82;;;21.30;51.40;;;;;;4984989;28;20026;-73
2022/05/09 09:04:53;;;;;;;14.18;7.85;;;21.60;51.70;;;;;;4994436;28;20120;-73
2022/05/09 09:07:38;;;;;;;11.45;7.40;;;21.70;51.60;;;;;;4999206;28;20382;-73
2022/05/09 09:10:08;;;;;;;11.48;7.72;;;21.90;51.60;;;;;;4994960;28;20030;-73
2022/05/09 09:13:05;;;;;;;15.20;8.40;;;22.00;51.60;;;;;;4990116;28;20125;-73
2022/05/09 09:15:46;;;;;;;13.85;7.80;;;22.10;51.70;;;;;;4989380;28;20109;-73
2022/05/09 09:18:14;;;;;;;13.75;9.07;;;22.20;52.30;;;;;;4985464;28;20082;-73
2022/05/09 09:20:52;;;;;;;13.85;8.20;;;22.30;51.80;;;;;;4993123;28;20027;-73
2022/05/09 09:23:53;;;;;;;11.60;8.13;;;22.40;51.90;;;;;;4987194;28;20169;-73
2022/05/09 09:26:29;;;;;;;15.75;9.07;;;22.50;52.00;;;;;;4972931;28;20126;-73
2022/05/09 09:29:36;;;;;;;19.40;9.40;;;22.50;51.80;;;;;;4985211;28;20047;-73
2022/05/09 09:32:13;;;;;;;11.70;8.05;;;22.70;51.90;;;;;;4929672;28;20039;-73
2022/05/09 09:34:59;;;;;;;14.45;8.60;;;22.80;51.90;;;;;;4970329;28;20130;-73
2022/05/09 09:37:55;;;;;;;10.75;8.05;;;22.90;52.00;;;;;;4972733;28;20065;-73
2022/05/09 09:40:21;;;;;;;16.58;8.18;;;23.10;52.00;;;;;;4987303;28;20029;-74
2022/05/09 09:42:55;;;;;;;13.77;7.55;;;23.30;52.10;;;;;;4992058;28;20129;-73
2022/05/09 09:45:49;;;;;;;15.20;7.90;;;23.40;51.70;;;;;;4975487;28;20062;-73
2022/05/09 09:48:21;;;;;;;12.75;7.72;;;23.50;51.50;;;;;;4977672;28;20128;-73
2022/05/09 09:51:01;;;;;;;12.18;6.93;;;23.60;51.50;;;;;;4977382;28;20069;-73
2022/05/09 09:53:30;;;;;;;18.63;8.00;;;23.70;52.20;;;;;;4981023;28;20295;-73
2022/05/09 09:56:05;;;;;;;13.73;7.70;;;23.70;51.50;;;;;;4987516;28;20108;-73
2022/05/09 09:58:32;;;;;;;13.23;7.47;;;23.70;51.40;;;;;;4987521;28;20513;-73
2022/05/09 10:01:04;;;;;;;14.70;7.32;;;23.70;51.30;;;;;;4995529;28;20027;-73
2022/05/09 10:03:31;;;;;;;10.23;7.20;;;23.80;51.40;;;;;;4992667;28;20131;-73
2022/05/09 10:05:58;;;;;;;12.35;7.30;;;23.80;51.30;;;;;;4992425;28;20026;-74
2022/05/09 10:08:37;;;;;;;11.07;7.85;;;23.80;51.30;;;;;;4978129;28;20038;-73
2022/05/09 10:11:28;;;;;;;11.73;6.85;;;23.90;51.20;;;;;;4988928;28;20277;-75
2022/05/09 10:13:56;;;;;;;10.13;5.97;;;24.00;51.20;;;;;;4982742;28;20132;-73
2022/05/09 10:16:30;;;;;;;10.82;6.72;;;24.00;51.20;;;;;;4981311;28;20105;-74
2022/05/09 10:18:58;;;;;;;12.82;7.10;;;24.10;51.30;;;;;;4994566;28;20135;-73
2022/05/09 10:27:06;;;;;;;10.18;6.05;;;24.10;51.30;;;;;;4989872;28;20022;-73
2022/05/09 10:29:38;;;;;;;13.55;6.90;;;24.10;51.20;;;;;;4988234;28;20121;-73
2022/05/09 10:32:09;;;;;;;10.60;6.72;;;24.10;51.00;;;;;;4985480;28;20523;-73
2022/05/09 10:34:48;;;;;;;16.90;6.47;;;24.20;51.00;;;;;;4991917;28;20095;-73
2022/05/09 10:37:27;;;;;;;10.30;7.07;;;24.30;51.00;;;;;;4990871;28;20052;-73
2022/05/09 10:40:19;;;;;;;13.13;7.07;;;24.40;51.00;;;;;;4993089;28;20045;-74
2022/05/09 10:42:50;;;;;;;13.25;7.38;;;24.50;50.90;;;;;;4963523;28;20103;-73
2022/05/09 10:45:23;;;;;;;12.32;6.95;;;24.60;51.00;;;;;;4968562;28;20042;-73
2022/05/09 10:48:10;;;;;;;13.65;7.38;;;24.60;50.70;;;;;;4992160;28;20042;-76
2022/05/09 10:50:51;;;;;;;14.20;6.72;;;24.60;50.50;;;;;;4991132;28;20038;-74
2022/05/09 10:53:38;;;;;;;9.48;6.45;;;24.60;50.40;;;;;;4988319;28;20026;-73
2022/05/09 10:56:08;;;;;;;11.40;7.75;;;24.70;50.60;;;;;;4973566;28;20122;-73
2022/05/09 10:58:57;;;;;;;12.23;7.00;;;24.80;50.50;;;;;;4990033;28;20038;-74
2022/05/09 11:01:30;;;;;;;10.35;7.10;;;24.90;50.60;;;;;;4987472;28;20034;-73
2022/05/09 11:03:56;;;;;;;;;;;25.00;50.80;;;;;;4987432;28;20144;-73
2022/05/09 11:06:31;;;;;;;13.63;7.35;;;25.10;50.80;;;;;;4989978;28;20321;-74
2022/05/09 11:08:57;;;;;;;12.73;7.53;;;25.20;50.80;;;;;;4990857;28;20487;-74
2022/05/09 11:11:48;;;;;;;16.52;7.88;;;25.30;50.70;;;;;;4979271;28;20056;-74
2022/05/09 11:14:19;;;;;;;14.43;8.65;;;25.30;50.60;;;;;;4989017;28;20443;-74
2022/05/09 11:17:04;;;;;;;10.68;7.00;;;25.30;50.60;;;;;;4988830;28;20121;-74
2022/05/09 11:20:09;;;;;;;19.33;7.50;;;25.20;50.40;;;;;;4984637;28;20042;-75
2022/05/09 11:22:42;;;;;;;12.88;7.95;;;25.20;50.50;;;;;;4960216;28;20076;-74
2022/05/09 11:25:26;;;;;;;11.95;7.55;;;25.20;50.70;;;;;;4984762;28;20104;-74
2022/05/09 11:28:23;;;;;;;15.43;7.65;;;25.30;50.70;;;;;;4988021;28;20026;-75
2022/05/09 11:31:24;;;;;;;15.07;8.65;;;25.50;50.60;;;;;;4982751;28;20037;-74
2022/05/09 11:34:28;;;;;;;23.75;7.43;;;25.70;50.50;;;;;;4995633;28;20041;-74
2022/05/09 11:37:19;;;;;;;10.95;7.05;;;25.80;50.40;;;;;;4988310;28;20042;-74
2022/05/09 11:40:16;;;;;;;12.25;7.57;;;25.90;50.20;;;;;;4982018;28;20140;-75
2022/05/09 11:43:32;;;;;;;12.98;7.35;;;26.00;50.10;;;;;;4984035;28;20034;-75
2022/05/09 11:46:11;;;;;;;10.25;6.18;;;26.20;50.00;;;;;;4980551;28;20090;-75
2022/05/09 11:48:37;;;;;;;9.43;6.35;;;26.40;49.80;;;;;;4994472;28;20482;-75
2022/05/09 11:51:15;;;;;;;10.57;5.40;;;26.60;49.60;;;;;;4985436;28;20034;-75
2022/05/09 11:53:49;;;;;;;9.70;6.65;;;26.60;49.30;;;;;;4986159;28;20364;-75
2022/05/09 11:56:15;;;;;;;9.18;5.95;;;26.60;49.20;;;;;;4989797;28;20024;-75
2022/05/09 11:58:43;;;;;;;9.93;5.93;;;26.60;49.30;;;;;;4992573;28;20324;-74
2022/05/09 12:01:09;;;;;;;12.10;6.32;;;26.50;49.20;;;;;;4991073;28;20027;-75
2022/05/09 12:03:55;;;;;;;12.48;6.35;;;26.40;49.20;;;;;;4986515;28;20042;-75
2022/05/09 12:06:36;;;;;;;8.95;6.10;;;26.40;49.20;;;;;;4989719;28;20037;-74
2022/05/09 12:09:08;;;;;;;9.27;5.88;;;26.40;49.30;;;;;;4992761;28;20053;-74
2022/05/09 12:11:47;;;;;;;9.60;6.30;;;26.30;49.40;;;;;;4987053;28;20060;-74
2022/05/09 12:14:43;;;;;;;7.95;5.25;;;26.40;49.40;;;;;;4989895;28;20077;-74
2022/05/09 12:17:21;;;;;;;10.95;5.85;;;26.40;49.10;;;;;;4979076;28;20031;-74
2022/05/09 12:19:47;;;;;;;11.52;5.47;;;26.40;49.20;;;;;;4983066;28;20049;-75
2022/05/09 12:22:34;;;;;;;10.13;5.68;;;26.50;49.20;;;;;;4993845;28;20030;-75
2022/05/09 12:25:03;;;;;;;8.60;5.18;;;26.50;49.10;;;;;;4982340;28;20074;-74
2022/05/09 12:27:59;;;;;;;8.32;5.35;;;26.60;49.10;;;;;;4965093;28;20041;-74
2022/05/09 12:31:01;;;;;;;7.03;5.28;;;26.70;48.60;;;;;;4990671;28;20406;-74
2022/05/09 12:33:50;;;;;;;10.05;4.70;;;27.00;48.40;;;;;;4993338;28;20038;-74
2022/05/09 12:36:22;;;;;;;7.93;5.43;;;27.20;48.40;;;;;;4991892;28;20062;-74
2022/05/09 12:38:51;;;;;;;9.23;5.35;;;27.40;48.00;;;;;;4992156;28;20228;-74
2022/05/09 12:41:26;;;;;;;8.07;4.28;;;27.60;47.70;;;;;;4991704;28;20061;-75
2022/05/09 12:44:00;;;;;;;10.32;4.90;;;27.80;47.40;;;;;;4980139;28;20187;-76
2022/05/09 12:46:37;;;;;;;11.40;5.22;;;28.00;47.20;;;;;;4988037;28;20046;-74
2022/05/09 12:49:06;;;;;;;7.10;4.55;;;28.00;46.90;;;;;;4977157;28;20038;-74
2022/05/09 12:51:39;;;;;;;11.13;5.10;;;27.90;46.80;;;;;;4990082;28;20084;-75
2022/05/09 12:54:11;;;;;;;10.60;4.70;;;27.90;46.80;;;;;;4990770;28;20034;-75
2022/05/09 12:56:39;;;;;;;6.32;4.05;;;27.90;46.80;;;;;;4993132;28;20802;-74
2022/05/09 12:59:08;;;;;;;10.38;4.57;;;28.00;46.80;;;;;;4993872;28;20037;-75
2022/05/09 13:01:40;;;;;;;5.85;3.70;;;28.30;46.60;;;;;;4990712;28;20039;-75
2022/05/09 13:04:18;;;;;;;8.60;3.83;;;28.60;46.10;;;;;;4994690;28;20030;-75
2022/05/09 13:06:49;;;;;;;6.25;4.57;;;28.80;45.70;;;;;;4991385;28;20490;-75
2022/05/09 13:09:23;;;;;;;7.13;4.30;;;28.90;45.40;;;;;;4991536;28;20033;-75
2022/05/09 13:11:57;;;;;;;7.47;4.15;;;28.90;45.20;;;;;;4990504;28;20026;-74
2022/05/09 13:14:36;;;;;;;6.85;3.90;;;29.00;45.20;;;;;;4994279;28;20026;-74
2022/05/09 13:17:10;;;;;;;5.32;3.72;;;29.00;44.90;;;;;;4990379;28;20065;-74
2022/05/09 13:19:36;;;;;;;6.70;4.10;;;28.90;44.90;;;;;;4990856;28;20510;-75
2022/05/09 13:22:04;;;;;;;7.65;4.28;;;28.90;45.00;;;;;;4988619;28;20096;-74